Terminal Aerodrome Forecast
Issued by NWS Key West, FL

Home | Current Version | Previous Version | Text Only | Print | Product List | Glossary On
Versions: 1 2 3 4 5 6 7 8 9 10 11 12 13 14 15 16 17 18 19 20 21 22
000
FTUS42 KKEY 251440 AAA
TAFEYW
TAF AMD
KEYW 251440Z 2515/2612 22012G18KT P6SM VCSH SCT015 SCT025 OVC150
      TEMPO 2515/2517 4SM SHRA
     FM251700 27007KT P6SM FEW020 SCT200
     FM260300 VRB03KT P6SM FEW200=

USA.gov is the U.S. government's official web portal to all federal, state and local government web resources and services.